sensor_id;sensor_type;location;lat;lon;timestamp;P1;durP1;ratioP1;P2;durP2;ratioP2
18973;SDS011;9621;48.690;9.466;2024-01-30T00:00:24;21.70;;;12.70;;
18973;SDS011;9621;48.690;9.466;2024-01-30T00:02:51;21.93;;;12.60;;
18973;SDS011;9621;48.690;9.466;2024-01-30T00:05:18;21.03;;;12.53;;
18973;SDS011;9621;48.690;9.466;2024-01-30T00:07:45;18.27;;;11.67;;
18973;SDS011;9621;48.690;9.466;2024-01-30T00:10:13;23.87;;;12.30;;
18973;SDS011;9621;48.690;9.466;2024-01-30T00:12:40;27.07;;;12.93;;
18973;SDS011;9621;48.690;9.466;2024-01-30T00:15:07;21.00;;;11.93;;
18973;SDS011;9621;48.690;9.466;2024-01-30T00:17:35;23.47;;;11.97;;
18973;SDS011;9621;48.690;9.466;2024-01-30T00:20:02;20.37;;;11.77;;
18973;SDS011;9621;48.690;9.466;2024-01-30T00:22:30;19.10;;;11.87;;
18973;SDS011;9621;48.690;9.466;2024-01-30T00:24:57;22.03;;;12.70;;
18973;SDS011;9621;48.690;9.466;2024-01-30T00:27:25;22.07;;;12.27;;
18973;SDS011;9621;48.690;9.466;2024-01-30T00:29:53;20.47;;;12.37;;
18973;SDS011;9621;48.690;9.466;2024-01-30T00:32:20;20.70;;;11.70;;
18973;SDS011;9621;48.690;9.466;2024-01-30T00:34:48;20.37;;;12.23;;
18973;SDS011;9621;48.690;9.466;2024-01-30T00:37:15;19.77;;;12.53;;
18973;SDS011;9621;48.690;9.466;2024-01-30T00:39:42;21.30;;;11.60;;
18973;SDS011;9621;48.690;9.466;2024-01-30T00:42:09;21.03;;;12.87;;
18973;SDS011;9621;48.690;9.466;2024-01-30T00:44:37;21.50;;;12.50;;
18973;SDS011;9621;48.690;9.466;2024-01-30T00:47:04;22.73;;;12.43;;
18973;SDS011;9621;48.690;9.466;2024-01-30T00:49:33;22.57;;;12.27;;
18973;SDS011;9621;48.690;9.466;2024-01-30T00:52:01;21.23;;;11.43;;
18973;SDS011;9621;48.690;9.466;2024-01-30T00:54:28;20.80;;;12.60;;
18973;SDS011;9621;48.690;9.466;2024-01-30T00:56:55;17.20;;;11.47;;
18973;SDS011;9621;48.690;9.466;2024-01-30T00:59:22;20.27;;;12.00;;
18973;SDS011;9621;48.690;9.466;2024-01-30T01:01:50;17.77;;;11.27;;
18973;SDS011;9621;48.690;9.466;2024-01-30T01:04:17;18.50;;;11.33;;
18973;SDS011;9621;48.690;9.466;2024-01-30T01:06:44;19.20;;;11.30;;
18973;SDS011;9621;48.690;9.466;2024-01-30T01:09:11;18.80;;;11.67;;
18973;SDS011;9621;48.690;9.466;2024-01-30T01:11:37;18.77;;;11.77;;
18973;SDS011;9621;48.690;9.466;2024-01-30T01:14:04;20.57;;;11.33;;
18973;SDS011;9621;48.690;9.466;2024-01-30T01:16:32;19.53;;;11.10;;
18973;SDS011;9621;48.690;9.466;2024-01-30T01:19:01;20.70;;;12.30;;
18973;SDS011;9621;48.690;9.466;2024-01-30T01:21:29;20.57;;;12.27;;
18973;SDS011;9621;48.690;9.466;2024-01-30T01:23:58;20.13;;;12.40;;
18973;SDS011;9621;48.690;9.466;2024-01-30T01:26:24;23.10;;;11.70;;
18973;SDS011;9621;48.690;9.466;2024-01-30T01:28:51;25.93;;;14.33;;
18973;SDS011;9621;48.690;9.466;2024-01-30T01:31:18;21.60;;;11.83;;
18973;SDS011;9621;48.690;9.466;2024-01-30T01:33:49;19.43;;;11.13;;
18973;SDS011;9621;48.690;9.466;2024-01-30T01:36:17;18.17;;;11.90;;
18973;SDS011;9621;48.690;9.466;2024-01-30T01:38:45;21.53;;;12.37;;
18973;SDS011;9621;48.690;9.466;2024-01-30T01:41:11;18.97;;;11.77;;
18973;SDS011;9621;48.690;9.466;2024-01-30T01:43:38;21.03;;;12.20;;
18973;SDS011;9621;48.690;9.466;2024-01-30T01:46:05;17.63;;;11.03;;
18973;SDS011;9621;48.690;9.466;2024-01-30T01:48:33;18.97;;;11.03;;
18973;SDS011;9621;48.690;9.466;2024-01-30T01:51:00;19.23;;;12.10;;
18973;SDS011;9621;48.690;9.466;2024-01-30T01:53:29;21.43;;;12.10;;
18973;SDS011;9621;48.690;9.466;2024-01-30T01:55:56;26.93;;;14.37;;
18973;SDS011;9621;48.690;9.466;2024-01-30T01:58:23;22.23;;;12.30;;
18973;SDS011;9621;48.690;9.466;2024-01-30T02:00:55;19.43;;;11.87;;
18973;SDS011;9621;48.690;9.466;2024-01-30T02:03:23;19.43;;;11.37;;
18973;SDS011;9621;48.690;9.466;2024-01-30T02:05:50;17.77;;;11.73;;
18973;SDS011;9621;48.690;9.466;2024-01-30T02:08:17;19.40;;;10.93;;
18973;SDS011;9621;48.690;9.466;2024-01-30T02:10:46;17.57;;;11.10;;
18973;SDS011;9621;48.690;9.466;2024-01-30T02:13:13;18.63;;;11.93;;
18973;SDS011;9621;48.690;9.466;2024-01-30T02:15:40;18.97;;;12.27;;
18973;SDS011;9621;48.690;9.466;2024-01-30T02:18:06;20.60;;;11.60;;
18973;SDS011;9621;48.690;9.466;2024-01-30T02:20:34;17.13;;;11.73;;
18973;SDS011;9621;48.690;9.466;2024-01-30T02:23:04;21.43;;;11.13;;
18973;SDS011;9621;48.690;9.466;2024-01-30T02:25:34;20.70;;;11.40;;
18973;SDS011;9621;48.690;9.466;2024-01-30T02:28:03;20.53;;;12.13;;
18973;SDS011;9621;48.690;9.466;2024-01-30T02:30:30;20.27;;;11.73;;
18973;SDS011;9621;48.690;9.466;2024-01-30T02:32:57;20.30;;;12.17;;
18973;SDS011;9621;48.690;9.466;2024-01-30T02:35:24;21.83;;;11.83;;
18973;SDS011;9621;48.690;9.466;2024-01-30T02:37:51;18.50;;;11.43;;
18973;SDS011;9621;48.690;9.466;2024-01-30T02:40:19;18.70;;;11.87;;
18973;SDS011;9621;48.690;9.466;2024-01-30T02:42:46;14.67;;;10.50;;
18973;SDS011;9621;48.690;9.466;2024-01-30T02:45:13;20.77;;;12.23;;
18973;SDS011;9621;48.690;9.466;2024-01-30T02:47:40;18.40;;;9.73;;
18973;SDS011;9621;48.690;9.466;2024-01-30T02:50:07;19.30;;;11.40;;
18973;SDS011;9621;48.690;9.466;2024-01-30T02:52:34;16.83;;;11.23;;
18973;SDS011;9621;48.690;9.466;2024-01-30T02:55:01;20.17;;;11.20;;
18973;SDS011;9621;48.690;9.466;2024-01-30T02:57:30;20.23;;;11.37;;
18973;SDS011;9621;48.690;9.466;2024-01-30T02:59:57;16.57;;;10.90;;
18973;SDS011;9621;48.690;9.466;2024-01-30T03:02:24;20.83;;;11.37;;
18973;SDS011;9621;48.690;9.466;2024-01-30T03:04:51;18.80;;;11.53;;
18973;SDS011;9621;48.690;9.466;2024-01-30T03:07:17;20.30;;;11.53;;
18973;SDS011;9621;48.690;9.466;2024-01-30T03:09:44;18.57;;;11.20;;
18973;SDS011;9621;48.690;9.466;2024-01-30T03:12:11;27.30;;;12.10;;
18973;SDS011;9621;48.690;9.466;2024-01-30T03:14:40;19.47;;;11.23;;
18973;SDS011;9621;48.690;9.466;2024-01-30T03:17:07;16.10;;;10.73;;
18973;SDS011;9621;48.690;9.466;2024-01-30T03:19:34;20.43;;;11.27;;
18973;SDS011;9621;48.690;9.466;2024-01-30T03:22:00;18.57;;;11.37;;
18973;SDS011;9621;48.690;9.466;2024-01-30T03:24:27;20.53;;;11.80;;
18973;SDS011;9621;48.690;9.466;2024-01-30T03:26:54;16.80;;;10.83;;
18973;SDS011;9621;48.690;9.466;2024-01-30T03:29:21;20.67;;;11.97;;
18973;SDS011;9621;48.690;9.466;2024-01-30T03:31:50;23.40;;;11.10;;
18973;SDS011;9621;48.690;9.466;2024-01-30T03:34:16;18.93;;;12.00;;
18973;SDS011;9621;48.690;9.466;2024-01-30T03:36:43;19.47;;;11.43;;
18973;SDS011;9621;48.690;9.466;2024-01-30T03:39:10;21.17;;;12.10;;
18973;SDS011;9621;48.690;9.466;2024-01-30T03:41:37;18.97;;;11.90;;
18973;SDS011;9621;48.690;9.466;2024-01-30T03:44:05;20.73;;;11.50;;
18973;SDS011;9621;48.690;9.466;2024-01-30T03:46:32;22.50;;;12.57;;
18973;SDS011;9621;48.690;9.466;2024-01-30T03:49:01;26.50;;;11.50;;
18973;SDS011;9621;48.690;9.466;2024-01-30T03:51:28;18.53;;;11.87;;
18973;SDS011;9621;48.690;9.466;2024-01-30T03:53:55;21.37;;;11.33;;
18973;SDS011;9621;48.690;9.466;2024-01-30T03:56:22;19.17;;;11.77;;
18973;SDS011;9621;48.690;9.466;2024-01-30T03:58:50;19.33;;;12.33;;
18973;SDS011;9621;48.690;9.466;2024-01-30T04:01:17;19.90;;;12.47;;
18973;SDS011;9621;48.690;9.466;2024-01-30T04:03:44;18.90;;;12.27;;
18973;SDS011;9621;48.690;9.466;2024-01-30T04:06:13;19.57;;;13.00;;
18973;SDS011;9621;48.690;9.466;2024-01-30T04:08:40;19.53;;;11.90;;
18973;SDS011;9621;48.690;9.466;2024-01-30T04:11:07;20.27;;;11.97;;
18973;SDS011;9621;48.690;9.466;2024-01-30T04:13:34;17.67;;;11.80;;
18973;SDS011;9621;48.690;9.466;2024-01-30T04:16:00;18.10;;;11.53;;
18973;SDS011;9621;48.690;9.466;2024-01-30T04:18:28;23.07;;;12.80;;
18973;SDS011;9621;48.690;9.466;2024-01-30T04:20:55;18.63;;;11.80;;
18973;SDS011;9621;48.690;9.466;2024-01-30T04:23:24;20.43;;;11.10;;
18973;SDS011;9621;48.690;9.466;2024-01-30T04:25:51;19.30;;;12.40;;
18973;SDS011;9621;48.690;9.466;2024-01-30T04:28:18;19.37;;;12.57;;
18973;SDS011;9621;48.690;9.466;2024-01-30T04:30:44;21.40;;;12.70;;
18973;SDS011;9621;48.690;9.466;2024-01-30T04:33:11;22.43;;;12.93;;
18973;SDS011;9621;48.690;9.466;2024-01-30T04:35:38;22.07;;;12.63;;
18973;SDS011;9621;48.690;9.466;2024-01-30T04:38:05;19.60;;;11.60;;
18973;SDS011;9621;48.690;9.466;2024-01-30T04:40:33;20.37;;;12.20;;
18973;SDS011;9621;48.690;9.466;2024-01-30T04:43:00;18.27;;;11.50;;
18973;SDS011;9621;48.690;9.466;2024-01-30T04:45:27;21.70;;;11.93;;
18973;SDS011;9621;48.690;9.466;2024-01-30T04:47:54;17.90;;;11.77;;
18973;SDS011;9621;48.690;9.466;2024-01-30T04:50:21;19.87;;;12.33;;
18973;SDS011;9621;48.690;9.466;2024-01-30T04:52:48;19.77;;;11.60;;
18973;SDS011;9621;48.690;9.466;2024-01-30T04:55:14;19.00;;;12.30;;
18973;SDS011;9621;48.690;9.466;2024-01-30T04:57:43;18.47;;;11.27;;
18973;SDS011;9621;48.690;9.466;2024-01-30T05:00:10;21.10;;;12.13;;
18973;SDS011;9621;48.690;9.466;2024-01-30T05:02:37;15.77;;;10.43;;
18973;SDS011;9621;48.690;9.466;2024-01-30T05:05:04;16.67;;;11.60;;
18973;SDS011;9621;48.690;9.466;2024-01-30T05:07:32;19.93;;;11.57;;
18973;SDS011;9621;48.690;9.466;2024-01-30T05:09:59;17.03;;;11.23;;
18973;SDS011;9621;48.690;9.466;2024-01-30T05:12:26;19.63;;;12.13;;
18973;SDS011;9621;48.690;9.466;2024-01-30T05:14:54;19.83;;;12.83;;
18973;SDS011;9621;48.690;9.466;2024-01-30T05:17:21;22.97;;;11.97;;
18973;SDS011;9621;48.690;9.466;2024-01-30T05:19:48;17.10;;;11.10;;
18973;SDS011;9621;48.690;9.466;2024-01-30T05:22:15;21.23;;;12.67;;
18973;SDS011;9621;48.690;9.466;2024-01-30T05:24:43;23.60;;;12.53;;
18973;SDS011;9621;48.690;9.466;2024-01-30T05:27:10;22.10;;;13.07;;
18973;SDS011;9621;48.690;9.466;2024-01-30T05:29:38;22.20;;;12.77;;
18973;SDS011;9621;48.690;9.466;2024-01-30T05:32:06;24.10;;;13.23;;
18973;SDS011;9621;48.690;9.466;2024-01-30T05:34:35;18.43;;;12.87;;
18973;SDS011;9621;48.690;9.466;2024-01-30T05:37:02;17.17;;;12.40;;
18973;SDS011;9621;48.690;9.466;2024-01-30T05:39:29;19.17;;;11.33;;
18973;SDS011;9621;48.690;9.466;2024-01-30T05:41:58;18.97;;;10.70;;
18973;SDS011;9621;48.690;9.466;2024-01-30T05:44:25;19.27;;;12.40;;
18973;SDS011;9621;48.690;9.466;2024-01-30T05:46:51;18.43;;;11.47;;
18973;SDS011;9621;48.690;9.466;2024-01-30T05:49:20;20.90;;;13.10;;
18973;SDS011;9621;48.690;9.466;2024-01-30T05:51:47;19.10;;;12.73;;
18973;SDS011;9621;48.690;9.466;2024-01-30T05:54:14;24.73;;;13.63;;
18973;SDS011;9621;48.690;9.466;2024-01-30T05:56:41;22.17;;;12.90;;
18973;SDS011;9621;48.690;9.466;2024-01-30T05:59:07;22.20;;;13.63;;
18973;SDS011;9621;48.690;9.466;2024-01-30T06:01:35;20.33;;;13.77;;
18973;SDS011;9621;48.690;9.466;2024-01-30T06:04:02;20.80;;;12.90;;
18973;SDS011;9621;48.690;9.466;2024-01-30T06:06:31;16.97;;;11.07;;
18973;SDS011;9621;48.690;9.466;2024-01-30T06:08:58;22.43;;;12.53;;
18973;SDS011;9621;48.690;9.466;2024-01-30T06:11:24;19.57;;;12.17;;
18973;SDS011;9621;48.690;9.466;2024-01-30T06:13:52;23.07;;;13.30;;
18973;SDS011;9621;48.690;9.466;2024-01-30T06:16:18;20.93;;;13.20;;
18973;SDS011;9621;48.690;9.466;2024-01-30T06:18:46;20.43;;;12.70;;
18973;SDS011;9621;48.690;9.466;2024-01-30T06:21:13;18.70;;;12.07;;
18973;SDS011;9621;48.690;9.466;2024-01-30T06:23:41;28.07;;;13.17;;
18973;SDS011;9621;48.690;9.466;2024-01-30T06:26:08;21.83;;;12.83;;
18973;SDS011;9621;48.690;9.466;2024-01-30T06:28:35;18.90;;;12.50;;
18973;SDS011;9621;48.690;9.466;2024-01-30T06:31:02;24.37;;;12.93;;
18973;SDS011;9621;48.690;9.466;2024-01-30T06:33:29;24.33;;;13.57;;
18973;SDS011;9621;48.690;9.466;2024-01-30T06:35:56;23.83;;;13.13;;
18973;SDS011;9621;48.690;9.466;2024-01-30T06:38:23;20.53;;;12.77;;
18973;SDS011;9621;48.690;9.466;2024-01-30T06:40:51;21.77;;;13.80;;
18973;SDS011;9621;48.690;9.466;2024-01-30T06:43:18;23.40;;;12.20;;
18973;SDS011;9621;48.690;9.466;2024-01-30T06:45:45;22.00;;;14.17;;
18973;SDS011;9621;48.690;9.466;2024-01-30T06:48:12;17.80;;;11.83;;
18973;SDS011;9621;48.690;9.466;2024-01-30T06:50:39;19.33;;;12.63;;
18973;SDS011;9621;48.690;9.466;2024-01-30T06:53:06;26.60;;;13.93;;
18973;SDS011;9621;48.690;9.466;2024-01-30T06:55:32;22.33;;;13.00;;
18973;SDS011;9621;48.690;9.466;2024-01-30T06:58:01;27.50;;;12.30;;
18973;SDS011;9621;48.690;9.466;2024-01-30T07:00:28;18.80;;;11.80;;
18973;SDS011;9621;48.690;9.466;2024-01-30T07:02:54;20.00;;;12.53;;
18973;SDS011;9621;48.690;9.466;2024-01-30T07:05:21;18.07;;;12.07;;
18973;SDS011;9621;48.690;9.466;2024-01-30T07:07:48;19.67;;;13.17;;
18973;SDS011;9621;48.690;9.466;2024-01-30T07:10:16;20.80;;;10.97;;
18973;SDS011;9621;48.690;9.466;2024-01-30T07:12:43;21.13;;;12.47;;
18973;SDS011;9621;48.690;9.466;2024-01-30T07:15:11;24.17;;;13.27;;
18973;SDS011;9621;48.690;9.466;2024-01-30T07:17:41;17.70;;;12.47;;
18973;SDS011;9621;48.690;9.466;2024-01-30T07:20:08;20.97;;;13.00;;
18973;SDS011;9621;48.690;9.466;2024-01-30T07:22:36;20.87;;;12.77;;
18973;SDS011;9621;48.690;9.466;2024-01-30T07:25:03;21.67;;;13.50;;
18973;SDS011;9621;48.690;9.466;2024-01-30T07:27:30;24.50;;;13.87;;
18973;SDS011;9621;48.690;9.466;2024-01-30T07:29:58;21.00;;;12.53;;
18973;SDS011;9621;48.690;9.466;2024-01-30T07:32:27;21.57;;;13.50;;
18973;SDS011;9621;48.690;9.466;2024-01-30T07:34:54;24.97;;;13.47;;
18973;SDS011;9621;48.690;9.466;2024-01-30T07:37:20;24.90;;;13.87;;
18973;SDS011;9621;48.690;9.466;2024-01-30T07:39:47;23.30;;;12.40;;
18973;SDS011;9621;48.690;9.466;2024-01-30T07:42:14;22.53;;;12.47;;
18973;SDS011;9621;48.690;9.466;2024-01-30T07:44:42;19.43;;;12.30;;
18973;SDS011;9621;48.690;9.466;2024-01-30T07:47:09;23.30;;;12.93;;
18973;SDS011;9621;48.690;9.466;2024-01-30T07:49:37;17.90;;;11.63;;
18973;SDS011;9621;48.690;9.466;2024-01-30T07:52:04;18.57;;;11.60;;
18973;SDS011;9621;48.690;9.466;2024-01-30T07:54:32;19.30;;;11.67;;
18973;SDS011;9621;48.690;9.466;2024-01-30T07:56:59;17.37;;;10.20;;
18973;SDS011;9621;48.690;9.466;2024-01-30T07:59:26;15.23;;;10.60;;
18973;SDS011;9621;48.690;9.466;2024-01-30T08:01:54;21.43;;;12.27;;
18973;SDS011;9621;48.690;9.466;2024-01-30T08:04:24;17.33;;;11.10;;
18973;SDS011;9621;48.690;9.466;2024-01-30T08:06:53;17.73;;;11.43;;
18973;SDS011;9621;48.690;9.466;2024-01-30T08:09:19;18.87;;;11.67;;
18973;SDS011;9621;48.690;9.466;2024-01-30T08:11:46;18.80;;;11.53;;
18973;SDS011;9621;48.690;9.466;2024-01-30T08:14:14;18.93;;;10.23;;
18973;SDS011;9621;48.690;9.466;2024-01-30T08:16:40;16.77;;;11.40;;
18973;SDS011;9621;48.690;9.466;2024-01-30T08:19:07;19.20;;;10.23;;
18973;SDS011;9621;48.690;9.466;2024-01-30T08:21:34;16.20;;;11.23;;
18973;SDS011;9621;48.690;9.466;2024-01-30T08:24:03;15.70;;;10.63;;
18973;SDS011;9621;48.690;9.466;2024-01-30T08:26:30;15.43;;;10.60;;
18973;SDS011;9621;48.690;9.466;2024-01-30T08:28:58;16.50;;;11.20;;
18973;SDS011;9621;48.690;9.466;2024-01-30T08:31:25;15.93;;;10.53;;
18973;SDS011;9621;48.690;9.466;2024-01-30T08:33:51;16.37;;;11.03;;
18973;SDS011;9621;48.690;9.466;2024-01-30T08:36:18;17.67;;;10.97;;
18973;SDS011;9621;48.690;9.466;2024-01-30T08:38:46;22.10;;;11.40;;
18973;SDS011;9621;48.690;9.466;2024-01-30T08:41:14;12.87;;;10.10;;
18973;SDS011;9621;48.690;9.466;2024-01-30T08:43:41;18.70;;;12.23;;
18973;SDS011;9621;48.690;9.466;2024-01-30T08:46:09;15.17;;;10.90;;
18973;SDS011;9621;48.690;9.466;2024-01-30T08:48:36;22.63;;;12.20;;
18973;SDS011;9621;48.690;9.466;2024-01-30T08:51:03;18.00;;;11.60;;
18973;SDS011;9621;48.690;9.466;2024-01-30T08:53:33;17.97;;;11.77;;
18973;SDS011;9621;48.690;9.466;2024-01-30T08:56:01;21.07;;;12.87;;
18973;SDS011;9621;48.690;9.466;2024-01-30T08:58:30;20.80;;;13.27;;
18973;SDS011;9621;48.690;9.466;2024-01-30T09:00:57;23.23;;;14.10;;
18973;SDS011;9621;48.690;9.466;2024-01-30T09:03:25;21.97;;;14.57;;
18973;SDS011;9621;48.690;9.466;2024-01-30T09:05:52;25.50;;;15.27;;
18973;SDS011;9621;48.690;9.466;2024-01-30T09:08:19;22.23;;;13.90;;
18973;SDS011;9621;48.690;9.466;2024-01-30T09:10:46;21.87;;;14.10;;
18973;SDS011;9621;48.690;9.466;2024-01-30T09:13:14;23.10;;;13.03;;
18973;SDS011;9621;48.690;9.466;2024-01-30T09:15:43;21.63;;;12.50;;
18973;SDS011;9621;48.690;9.466;2024-01-30T09:18:09;21.60;;;12.73;;
18973;SDS011;9621;48.690;9.466;2024-01-30T09:20:36;19.73;;;11.47;;
18973;SDS011;9621;48.690;9.466;2024-01-30T09:23:03;19.33;;;11.77;;
18973;SDS011;9621;48.690;9.466;2024-01-30T09:25:30;17.40;;;11.90;;
18973;SDS011;9621;48.690;9.466;2024-01-30T09:27:58;20.07;;;11.97;;
18973;SDS011;9621;48.690;9.466;2024-01-30T09:30:25;16.97;;;11.03;;
18973;SDS011;9621;48.690;9.466;2024-01-30T09:32:54;18.33;;;11.27;;
18973;SDS011;9621;48.690;9.466;2024-01-30T09:35:21;15.07;;;10.43;;
18973;SDS011;9621;48.690;9.466;2024-01-30T09:37:47;15.23;;;10.73;;
18973;SDS011;9621;48.690;9.466;2024-01-30T09:40:14;20.20;;;12.33;;
18973;SDS011;9621;48.690;9.466;2024-01-30T09:42:44;17.27;;;11.27;;
18973;SDS011;9621;48.690;9.466;2024-01-30T09:45:14;18.37;;;11.57;;
18973;SDS011;9621;48.690;9.466;2024-01-30T09:47:41;15.57;;;10.60;;
18973;SDS011;9621;48.690;9.466;2024-01-30T09:50:13;15.67;;;11.63;;
18973;SDS011;9621;48.690;9.466;2024-01-30T09:52:41;14.87;;;10.73;;
18973;SDS011;9621;48.690;9.466;2024-01-30T09:55:09;19.57;;;11.90;;
18973;SDS011;9621;48.690;9.466;2024-01-30T09:57:36;20.20;;;13.90;;
18973;SDS011;9621;48.690;9.466;2024-01-30T10:00:04;20.70;;;12.60;;
18973;SDS011;9621;48.690;9.466;2024-01-30T10:02:36;18.43;;;11.30;;
18973;SDS011;9621;48.690;9.466;2024-01-30T10:05:03;16.67;;;10.33;;
18973;SDS011;9621;48.690;9.466;2024-01-30T10:07:32;15.87;;;9.77;;
18973;SDS011;9621;48.690;9.466;2024-01-30T10:09:59;13.53;;;9.47;;
18973;SDS011;9621;48.690;9.466;2024-01-30T10:12:26;13.53;;;9.53;;
18973;SDS011;9621;48.690;9.466;2024-01-30T10:14:55;13.97;;;9.07;;
18973;SDS011;9621;48.690;9.466;2024-01-30T10:17:24;15.07;;;9.25;;
18973;SDS011;9621;48.690;9.466;2024-01-30T10:19:52;15.23;;;9.33;;
18973;SDS011;9621;48.690;9.466;2024-01-30T10:22:19;12.20;;;8.52;;
18973;SDS011;9621;48.690;9.466;2024-01-30T10:24:47;16.60;;;8.95;;
18973;SDS011;9621;48.690;9.466;2024-01-30T10:27:14;13.18;;;8.60;;
18973;SDS011;9621;48.690;9.466;2024-01-30T10:29:41;13.60;;;8.70;;
18973;SDS011;9621;48.690;9.466;2024-01-30T10:32:08;12.93;;;8.35;;
18973;SDS011;9621;48.690;9.466;2024-01-30T10:34:35;15.73;;;9.25;;
18973;SDS011;9621;48.690;9.466;2024-01-30T10:37:06;16.92;;;9.27;;
18973;SDS011;9621;48.690;9.466;2024-01-30T10:39:37;11.95;;;8.48;;
18973;SDS011;9621;48.690;9.466;2024-01-30T10:42:11;13.30;;;8.38;;
18973;SDS011;9621;48.690;9.466;2024-01-30T10:44:43;11.63;;;8.63;;
18973;SDS011;9621;48.690;9.466;2024-01-30T10:47:14;11.40;;;8.23;;
18973;SDS011;9621;48.690;9.466;2024-01-30T10:49:48;13.82;;;9.15;;
18973;SDS011;9621;48.690;9.466;2024-01-30T10:52:15;10.98;;;7.80;;
18973;SDS011;9621;48.690;9.466;2024-01-30T10:54:44;11.80;;;7.78;;
18973;SDS011;9621;48.690;9.466;2024-01-30T10:57:13;10.43;;;7.53;;
18973;SDS011;9621;48.690;9.466;2024-01-30T10:59:42;12.75;;;7.85;;
18973;SDS011;9621;48.690;9.466;2024-01-30T11:02:10;11.60;;;7.25;;
18973;SDS011;9621;48.690;9.466;2024-01-30T11:04:37;11.60;;;7.28;;
18973;SDS011;9621;48.690;9.466;2024-01-30T11:07:13;11.13;;;7.70;;
18973;SDS011;9621;48.690;9.466;2024-01-30T11:09:47;11.13;;;7.80;;
18973;SDS011;9621;48.690;9.466;2024-01-30T11:12:18;12.02;;;7.95;;
18973;SDS011;9621;48.690;9.466;2024-01-30T11:14:48;14.27;;;7.90;;
18973;SDS011;9621;48.690;9.466;2024-01-30T11:17:15;12.85;;;7.80;;
18973;SDS011;9621;48.690;9.466;2024-01-30T11:19:42;13.77;;;7.65;;
18973;SDS011;9621;48.690;9.466;2024-01-30T11:22:10;13.38;;;7.32;;
18973;SDS011;9621;48.690;9.466;2024-01-30T11:24:39;11.50;;;7.75;;
18973;SDS011;9621;48.690;9.466;2024-01-30T11:27:08;10.02;;;7.35;;
18973;SDS011;9621;48.690;9.466;2024-01-30T11:29:37;11.02;;;7.85;;
18973;SDS011;9621;48.690;9.466;2024-01-30T11:32:03;12.05;;;7.82;;
18973;SDS011;9621;48.690;9.466;2024-01-30T11:34:32;11.38;;;7.78;;
18973;SDS011;9621;48.690;9.466;2024-01-30T11:37:01;13.80;;;7.50;;
18973;SDS011;9621;48.690;9.466;2024-01-30T11:39:35;10.90;;;7.80;;
18973;SDS011;9621;48.690;9.466;2024-01-30T11:42:02;12.65;;;7.95;;
18973;SDS011;9621;48.690;9.466;2024-01-30T11:44:31;12.18;;;8.00;;
18973;SDS011;9621;48.690;9.466;2024-01-30T11:46:59;13.55;;;8.10;;
18973;SDS011;9621;48.690;9.466;2024-01-30T11:49:28;14.38;;;8.80;;
18973;SDS011;9621;48.690;9.466;2024-01-30T11:51:55;12.88;;;8.38;;
18973;SDS011;9621;48.690;9.466;2024-01-30T11:54:22;12.93;;;8.35;;
18973;SDS011;9621;48.690;9.466;2024-01-30T11:56:49;11.93;;;8.00;;
18973;SDS011;9621;48.690;9.466;2024-01-30T11:59:16;12.23;;;8.68;;
18973;SDS011;9621;48.690;9.466;2024-01-30T12:01:43;10.85;;;7.68;;
18973;SDS011;9621;48.690;9.466;2024-01-30T12:04:11;13.25;;;7.82;;
18973;SDS011;9621;48.690;9.466;2024-01-30T12:06:38;11.45;;;7.78;;
18973;SDS011;9621;48.690;9.466;2024-01-30T12:09:06;11.20;;;7.60;;
18973;SDS011;9621;48.690;9.466;2024-01-30T12:11:42;11.93;;;7.55;;
18973;SDS011;9621;48.690;9.466;2024-01-30T12:14:10;13.85;;;7.97;;
18973;SDS011;9621;48.690;9.466;2024-01-30T12:16:38;14.27;;;7.75;;
18973;SDS011;9621;48.690;9.466;2024-01-30T12:19:06;11.20;;;7.55;;
18973;SDS011;9621;48.690;9.466;2024-01-30T12:21:35;9.45;;;7.78;;
18973;SDS011;9621;48.690;9.466;2024-01-30T12:24:02;10.35;;;7.30;;
18973;SDS011;9621;48.690;9.466;2024-01-30T12:26:29;9.88;;;7.30;;
18973;SDS011;9621;48.690;9.466;2024-01-30T12:28:56;15.35;;;7.80;;
18973;SDS011;9621;48.690;9.466;2024-01-30T12:31:27;11.82;;;8.25;;
18973;SDS011;9621;48.690;9.466;2024-01-30T12:33:54;10.25;;;7.80;;
18973;SDS011;9621;48.690;9.466;2024-01-30T12:36:21;12.73;;;7.68;;
18973;SDS011;9621;48.690;9.466;2024-01-30T12:38:51;17.13;;;9.32;;
18973;SDS011;9621;48.690;9.466;2024-01-30T12:41:18;18.63;;;10.43;;
18973;SDS011;9621;48.690;9.466;2024-01-30T12:43:46;20.05;;;11.52;;
18973;SDS011;9621;48.690;9.466;2024-01-30T12:46:13;16.27;;;9.48;;
18973;SDS011;9621;48.690;9.466;2024-01-30T12:48:43;15.32;;;9.60;;
18973;SDS011;9621;48.690;9.466;2024-01-30T12:51:09;18.88;;;10.70;;
18973;SDS011;9621;48.690;9.466;2024-01-30T12:53:36;15.95;;;10.40;;
18973;SDS011;9621;48.690;9.466;2024-01-30T12:56:05;17.42;;;10.30;;
18973;SDS011;9621;48.690;9.466;2024-01-30T12:58:32;22.10;;;11.25;;
18973;SDS011;9621;48.690;9.466;2024-01-30T13:00:59;17.20;;;9.80;;
18973;SDS011;9621;48.690;9.466;2024-01-30T13:03:26;18.77;;;10.40;;
18973;SDS011;9621;48.690;9.466;2024-01-30T13:05:53;13.82;;;9.13;;
18973;SDS011;9621;48.690;9.466;2024-01-30T13:08:20;16.63;;;9.23;;
18973;SDS011;9621;48.690;9.466;2024-01-30T13:10:47;13.73;;;8.35;;
18973;SDS011;9621;48.690;9.466;2024-01-30T13:13:16;15.68;;;9.52;;
18973;SDS011;9621;48.690;9.466;2024-01-30T13:15:43;13.93;;;8.50;;
18973;SDS011;9621;48.690;9.466;2024-01-30T13:18:10;14.00;;;8.35;;
18973;SDS011;9621;48.690;9.466;2024-01-30T13:20:36;13.43;;;8.18;;
18973;SDS011;9621;48.690;9.466;2024-01-30T13:23:03;14.88;;;9.02;;
18973;SDS011;9621;48.690;9.466;2024-01-30T13:25:30;13.98;;;8.15;;
18973;SDS011;9621;48.690;9.466;2024-01-30T13:27:57;15.82;;;8.30;;
18973;SDS011;9621;48.690;9.466;2024-01-30T13:30:26;20.20;;;11.50;;
18973;SDS011;9621;48.690;9.466;2024-01-30T13:32:53;13.82;;;9.45;;
18973;SDS011;9621;48.690;9.466;2024-01-30T13:35:20;14.50;;;9.50;;
18973;SDS011;9621;48.690;9.466;2024-01-30T13:37:47;12.43;;;7.78;;
18973;SDS011;9621;48.690;9.466;2024-01-30T13:40:14;13.27;;;8.30;;
18973;SDS011;9621;48.690;9.466;2024-01-30T13:42:41;12.68;;;8.13;;
18973;SDS011;9621;48.690;9.466;2024-01-30T13:45:08;12.15;;;8.15;;
18973;SDS011;9621;48.690;9.466;2024-01-30T13:47:37;13.82;;;7.78;;
18973;SDS011;9621;48.690;9.466;2024-01-30T13:50:04;12.65;;;7.90;;
18973;SDS011;9621;48.690;9.466;2024-01-30T13:52:33;11.18;;;7.30;;
18973;SDS011;9621;48.690;9.466;2024-01-30T13:55:00;12.95;;;6.85;;
18973;SDS011;9621;48.690;9.466;2024-01-30T13:57:27;10.43;;;7.25;;
18973;SDS011;9621;48.690;9.466;2024-01-30T13:59:54;12.57;;;7.60;;
18973;SDS011;9621;48.690;9.466;2024-01-30T14:02:22;11.70;;;7.50;;
18973;SDS011;9621;48.690;9.466;2024-01-30T14:04:50;10.35;;;7.30;;
18973;SDS011;9621;48.690;9.466;2024-01-30T14:07:17;17.08;;;7.93;;
18973;SDS011;9621;48.690;9.466;2024-01-30T14:09:44;11.93;;;7.68;;
18973;SDS011;9621;48.690;9.466;2024-01-30T14:12:11;9.85;;;7.32;;
18973;SDS011;9621;48.690;9.466;2024-01-30T14:14:38;11.75;;;7.47;;
18973;SDS011;9621;48.690;9.466;2024-01-30T14:17:05;11.15;;;7.55;;
18973;SDS011;9621;48.690;9.466;2024-01-30T14:19:32;10.50;;;7.13;;
18973;SDS011;9621;48.690;9.466;2024-01-30T14:22:00;11.25;;;7.60;;
18973;SDS011;9621;48.690;9.466;2024-01-30T14:24:27;9.55;;;7.35;;
18973;SDS011;9621;48.690;9.466;2024-01-30T14:26:54;13.05;;;8.40;;
18973;SDS011;9621;48.690;9.466;2024-01-30T14:29:21;11.77;;;7.72;;
18973;SDS011;9621;48.690;9.466;2024-01-30T14:31:48;10.77;;;7.63;;
18973;SDS011;9621;48.690;9.466;2024-01-30T14:34:15;13.52;;;7.53;;
18973;SDS011;9621;48.690;9.466;2024-01-30T14:36:43;11.45;;;7.40;;
18973;SDS011;9621;48.690;9.466;2024-01-30T14:39:12;12.02;;;7.68;;